sensor_id;sensor_type;location;lat;lon;timestamp;temperature;humidity
21267;DHT22;10791;53.108;18.326;2022-12-07T00:02:13;2.80;99.90
21267;DHT22;10791;53.108;18.326;2022-12-07T00:07:17;2.70;99.90
21267;DHT22;10791;53.108;18.326;2022-12-07T00:12:28;2.70;99.90
21267;DHT22;10791;53.108;18.326;2022-12-07T00:17:32;2.70;99.90
21267;DHT22;10791;53.108;18.326;2022-12-07T00:22:36;2.80;99.90
21267;DHT22;10791;53.108;18.326;2022-12-07T00:27:40;2.70;99.90
21267;DHT22;10791;53.108;18.326;2022-12-07T00:32:44;2.70;99.90
21267;DHT22;10791;53.108;18.326;2022-12-07T00:37:47;2.70;99.90
21267;DHT22;10791;53.108;18.326;2022-12-07T00:42:50;2.70;99.90
21267;DHT22;10791;53.108;18.326;2022-12-07T00:47:54;2.70;99.90
21267;DHT22;10791;53.108;18.326;2022-12-07T00:52:57;2.70;99.90
21267;DHT22;10791;53.108;18.326;2022-12-07T00:58:01;2.70;99.90
21267;DHT22;10791;53.108;18.326;2022-12-07T01:03:07;2.70;99.90
21267;DHT22;10791;53.108;18.326;2022-12-07T01:08:10;2.70;99.90
21267;DHT22;10791;53.108;18.326;2022-12-07T01:13:15;2.70;99.90
21267;DHT22;10791;53.108;18.326;2022-12-07T01:18:18;2.70;99.90
21267;DHT22;10791;53.108;18.326;2022-12-07T01:23:22;2.70;99.90
21267;DHT22;10791;53.108;18.326;2022-12-07T01:28:26;2.70;99.90
21267;DHT22;10791;53.108;18.326;2022-12-07T01:33:33;2.70;99.90
21267;DHT22;10791;53.108;18.326;2022-12-07T01:38:37;2.70;99.90
21267;DHT22;10791;53.108;18.326;2022-12-07T01:49:28;2.70;99.90
21267;DHT22;10791;53.108;18.326;2022-12-07T01:54:33;2.70;99.90
21267;DHT22;10791;53.108;18.326;2022-12-07T01:59:37;2.70;99.90
21267;DHT22;10791;53.108;18.326;2022-12-07T02:04:41;2.70;99.90
21267;DHT22;10791;53.108;18.326;2022-12-07T02:09:45;2.70;99.90
21267;DHT22;10791;53.108;18.326;2022-12-07T02:14:49;2.70;99.90
21267;DHT22;10791;53.108;18.326;2022-12-07T02:20:39;2.70;99.90
21267;DHT22;10791;53.108;18.326;2022-12-07T02:31:12;2.70;99.90
21267;DHT22;10791;53.108;18.326;2022-12-07T02:36:31;2.60;99.90
21267;DHT22;10791;53.108;18.326;2022-12-07T02:41:55;2.70;99.90
21267;DHT22;10791;53.108;18.326;2022-12-07T02:47:07;2.70;99.90
21267;DHT22;10791;53.108;18.326;2022-12-07T02:52:14;2.70;99.90
21267;DHT22;10791;53.108;18.326;2022-12-07T02:58:03;2.70;99.90
21267;DHT22;10791;53.108;18.326;2022-12-07T03:03:14;2.70;99.90
21267;DHT22;10791;53.108;18.326;2022-12-07T03:08:38;2.70;99.90
21267;DHT22;10791;53.108;18.326;2022-12-07T03:14:17;2.70;99.90
21267;DHT22;10791;53.108;18.326;2022-12-07T03:19:45;2.80;99.90
21267;DHT22;10791;53.108;18.326;2022-12-07T03:24:52;2.80;99.90
21267;DHT22;10791;53.108;18.326;2022-12-07T03:30:10;2.90;99.90
21267;DHT22;10791;53.108;18.326;2022-12-07T03:40:40;2.90;99.90
21267;DHT22;10791;53.108;18.326;2022-12-07T03:56:30;3.10;99.90
21267;DHT22;10791;53.108;18.326;2022-12-07T04:01:33;3.10;99.90
21267;DHT22;10791;53.108;18.326;2022-12-07T04:06:37;3.10;99.90
21267;DHT22;10791;53.108;18.326;2022-12-07T04:11:41;3.10;99.90
21267;DHT22;10791;53.108;18.326;2022-12-07T04:16:46;3.10;99.90
21267;DHT22;10791;53.108;18.326;2022-12-07T04:21:50;3.10;99.90
21267;DHT22;10791;53.108;18.326;2022-12-07T04:26:54;3.10;99.90
21267;DHT22;10791;53.108;18.326;2022-12-07T04:31:58;3.10;99.90
21267;DHT22;10791;53.108;18.326;2022-12-07T04:37:01;3.10;99.90
21267;DHT22;10791;53.108;18.326;2022-12-07T04:42:05;3.10;99.90
21267;DHT22;10791;53.108;18.326;2022-12-07T04:47:08;3.10;99.90
21267;DHT22;10791;53.108;18.326;2022-12-07T04:52:11;3.00;99.90
21267;DHT22;10791;53.108;18.326;2022-12-07T04:57:18;3.00;99.90
21267;DHT22;10791;53.108;18.326;2022-12-07T05:02:22;2.90;99.90
21267;DHT22;10791;53.108;18.326;2022-12-07T05:07:26;2.90;99.90
21267;DHT22;10791;53.108;18.326;2022-12-07T05:12:29;2.90;99.90
21267;DHT22;10791;53.108;18.326;2022-12-07T05:17:54;2.90;99.90
21267;DHT22;10791;53.108;18.326;2022-12-07T05:23:19;2.80;99.90
21267;DHT22;10791;53.108;18.326;2022-12-07T05:28:53;2.80;99.90
21267;DHT22;10791;53.108;18.326;2022-12-07T05:33:57;2.60;99.90
21267;DHT22;10791;53.108;18.326;2022-12-07T05:39:01;2.60;99.90
21267;DHT22;10791;53.108;18.326;2022-12-07T05:44:26;2.60;99.90
21267;DHT22;10791;53.108;18.326;2022-12-07T05:49:30;2.50;99.90
21267;DHT22;10791;53.108;18.326;2022-12-07T05:54:34;2.50;99.90
21267;DHT22;10791;53.108;18.326;2022-12-07T05:59:37;2.40;99.90
21267;DHT22;10791;53.108;18.326;2022-12-07T06:04:45;2.30;99.90
21267;DHT22;10791;53.108;18.326;2022-12-07T06:09:49;2.30;99.90
21267;DHT22;10791;53.108;18.326;2022-12-07T06:14:52;2.20;99.90
21267;DHT22;10791;53.108;18.326;2022-12-07T06:19:55;2.10;99.90
21267;DHT22;10791;53.108;18.326;2022-12-07T06:24:59;2.10;99.90
21267;DHT22;10791;53.108;18.326;2022-12-07T06:30:09;2.00;99.90
21267;DHT22;10791;53.108;18.326;2022-12-07T06:35:12;2.00;99.90
21267;DHT22;10791;53.108;18.326;2022-12-07T06:40:16;1.90;99.90
21267;DHT22;10791;53.108;18.326;2022-12-07T06:45:19;1.90;99.90
21267;DHT22;10791;53.108;18.326;2022-12-07T06:50:23;1.90;99.90
21267;DHT22;10791;53.108;18.326;2022-12-07T06:55:26;1.90;99.90
21267;DHT22;10791;53.108;18.326;2022-12-07T07:00:30;1.80;99.90
21267;DHT22;10791;53.108;18.326;2022-12-07T07:05:35;1.80;99.90
21267;DHT22;10791;53.108;18.326;2022-12-07T07:10:38;1.70;99.90
21267;DHT22;10791;53.108;18.326;2022-12-07T07:15:42;1.60;99.90
21267;DHT22;10791;53.108;18.326;2022-12-07T07:20:45;1.60;99.90
21267;DHT22;10791;53.108;18.326;2022-12-07T07:25:50;1.60;99.90
21267;DHT22;10791;53.108;18.326;2022-12-07T07:30:53;1.60;99.90
21267;DHT22;10791;53.108;18.326;2022-12-07T07:35:58;1.50;99.90
21267;DHT22;10791;53.108;18.326;2022-12-07T07:41:01;1.50;99.90
21267;DHT22;10791;53.108;18.326;2022-12-07T07:46:05;1.50;99.90
21267;DHT22;10791;53.108;18.326;2022-12-07T07:51:08;1.50;99.90
21267;DHT22;10791;53.108;18.326;2022-12-07T07:56:11;1.50;99.90
21267;DHT22;10791;53.108;18.326;2022-12-07T08:01:15;1.60;99.90
21267;DHT22;10791;53.108;18.326;2022-12-07T08:06:19;1.60;99.90
21267;DHT22;10791;53.108;18.326;2022-12-07T08:11:23;1.70;99.90
21267;DHT22;10791;53.108;18.326;2022-12-07T08:16:28;1.70;99.90
21267;DHT22;10791;53.108;18.326;2022-12-07T08:21:31;1.70;99.90
21267;DHT22;10791;53.108;18.326;2022-12-07T08:26:35;1.80;99.90
21267;DHT22;10791;53.108;18.326;2022-12-07T08:31:38;1.80;99.90
21267;DHT22;10791;53.108;18.326;2022-12-07T08:36:43;1.80;99.90
21267;DHT22;10791;53.108;18.326;2022-12-07T08:41:46;1.80;99.90
21267;DHT22;10791;53.108;18.326;2022-12-07T08:46:55;1.80;99.90
21267;DHT22;10791;53.108;18.326;2022-12-07T08:52:00;1.90;99.90
21267;DHT22;10791;53.108;18.326;2022-12-07T08:57:04;2.00;99.90
21267;DHT22;10791;53.108;18.326;2022-12-07T09:02:09;2.00;99.90
21267;DHT22;10791;53.108;18.326;2022-12-07T09:07:13;2.10;99.90
21267;DHT22;10791;53.108;18.326;2022-12-07T09:12:16;2.10;99.90
21267;DHT22;10791;53.108;18.326;2022-12-07T09:17:20;2.10;99.90
21267;DHT22;10791;53.108;18.326;2022-12-07T09:22:23;2.10;99.90
21267;DHT22;10791;53.108;18.326;2022-12-07T09:27:28;2.20;99.90
21267;DHT22;10791;53.108;18.326;2022-12-07T09:32:31;2.30;99.90
21267;DHT22;10791;53.108;18.326;2022-12-07T09:37:35;2.30;99.90
21267;DHT22;10791;53.108;18.326;2022-12-07T09:42:41;2.30;99.90
21267;DHT22;10791;53.108;18.326;2022-12-07T09:47:47;2.40;99.90
21267;DHT22;10791;53.108;18.326;2022-12-07T09:52:51;2.40;99.90
21267;DHT22;10791;53.108;18.326;2022-12-07T09:57:57;2.50;99.90
21267;DHT22;10791;53.108;18.326;2022-12-07T10:03:02;2.50;99.90
21267;DHT22;10791;53.108;18.326;2022-12-07T10:08:08;2.60;99.90
21267;DHT22;10791;53.108;18.326;2022-12-07T10:13:18;2.70;99.90
21267;DHT22;10791;53.108;18.326;2022-12-07T10:18:31;2.80;99.90
21267;DHT22;10791;53.108;18.326;2022-12-07T10:23:36;2.80;99.90
21267;DHT22;10791;53.108;18.326;2022-12-07T10:28:40;2.80;99.90
21267;DHT22;10791;53.108;18.326;2022-12-07T10:33:56;2.80;99.90
21267;DHT22;10791;53.108;18.326;2022-12-07T10:39:11;2.80;99.90
21267;DHT22;10791;53.108;18.326;2022-12-07T10:44:22;2.80;99.90
21267;DHT22;10791;53.108;18.326;2022-12-07T11:00:32;2.80;99.90
21267;DHT22;10791;53.108;18.326;2022-12-07T11:05:45;2.80;99.90
21267;DHT22;10791;53.108;18.326;2022-12-07T11:10:55;2.80;99.90
21267;DHT22;10791;53.108;18.326;2022-12-07T11:27:07;2.80;99.90
21267;DHT22;10791;53.108;18.326;2022-12-07T11:32:44;2.80;99.90
21267;DHT22;10791;53.108;18.326;2022-12-07T11:37:51;2.80;99.90
21267;DHT22;10791;53.108;18.326;2022-12-07T11:43:06;2.80;99.90
21267;DHT22;10791;53.108;18.326;2022-12-07T11:48:17;2.80;99.90
21267;DHT22;10791;53.108;18.326;2022-12-07T12:09:16;2.70;99.90
21267;DHT22;10791;53.108;18.326;2022-12-07T12:25:23;2.70;99.90
21267;DHT22;10791;53.108;18.326;2022-12-07T12:30:39;2.70;99.90
21267;DHT22;10791;53.108;18.326;2022-12-07T12:35:43;2.70;99.90
21267;DHT22;10791;53.108;18.326;2022-12-07T12:40:48;2.70;99.90
21267;DHT22;10791;53.108;18.326;2022-12-07T12:46:55;2.70;99.90
21267;DHT22;10791;53.108;18.326;2022-12-07T12:51:41;2.60;99.90
21267;DHT22;10791;53.108;18.326;2022-12-07T13:28:54;2.60;99.90
21267;DHT22;10791;53.108;18.326;2022-12-07T13:34:36;2.50;99.90
21267;DHT22;10791;53.108;18.326;2022-12-07T13:39:49;2.50;99.90
21267;DHT22;10791;53.108;18.326;2022-12-07T13:44:53;2.40;99.90
21267;DHT22;10791;53.108;18.326;2022-12-07T13:49:57;2.40;99.90
21267;DHT22;10791;53.108;18.326;2022-12-07T14:00:17;2.40;99.90
21267;DHT22;10791;53.108;18.326;2022-12-07T14:05:29;2.40;99.90
21267;DHT22;10791;53.108;18.326;2022-12-07T14:15:55;2.30;99.90
21267;DHT22;10791;53.108;18.326;2022-12-07T14:21:05;2.20;99.90
21267;DHT22;10791;53.108;18.326;2022-12-07T14:26:19;2.20;99.90
21267;DHT22;10791;53.108;18.326;2022-12-07T14:31:24;2.20;99.90
21267;DHT22;10791;53.108;18.326;2022-12-07T14:36:32;2.10;99.90
21267;DHT22;10791;53.108;18.326;2022-12-07T14:41:35;2.10;99.90
21267;DHT22;10791;53.108;18.326;2022-12-07T14:46:54;2.10;99.90
21267;DHT22;10791;53.108;18.326;2022-12-07T14:52:20;2.10;99.90
21267;DHT22;10791;53.108;18.326;2022-12-07T14:57:45;2.10;99.90
21267;DHT22;10791;53.108;18.326;2022-12-07T15:02:49;2.10;99.90
21267;DHT22;10791;53.108;18.326;2022-12-07T15:07:52;2.10;99.90
21267;DHT22;10791;53.108;18.326;2022-12-07T15:12:57;2.00;99.90
21267;DHT22;10791;53.108;18.326;2022-12-07T15:18:21;2.00;99.90
21267;DHT22;10791;53.108;18.326;2022-12-07T15:23:25;2.00;99.90
21267;DHT22;10791;53.108;18.326;2022-12-07T15:28:28;1.90;99.90
21267;DHT22;10791;53.108;18.326;2022-12-07T15:33:31;2.00;99.90
21267;DHT22;10791;53.108;18.326;2022-12-07T15:38:35;2.00;99.90
21267;DHT22;10791;53.108;18.326;2022-12-07T15:43:58;2.00;99.90
21267;DHT22;10791;53.108;18.326;2022-12-07T15:49:20;2.00;99.90
21267;DHT22;10791;53.108;18.326;2022-12-07T15:54:28;2.00;99.90
21267;DHT22;10791;53.108;18.326;2022-12-07T15:59:31;2.00;99.90
21267;DHT22;10791;53.108;18.326;2022-12-07T16:04:34;2.00;99.90
21267;DHT22;10791;53.108;18.326;2022-12-07T16:09:38;2.00;99.90
21267;DHT22;10791;53.108;18.326;2022-12-07T16:14:41;2.00;99.90
21267;DHT22;10791;53.108;18.326;2022-12-07T16:19:45;2.00;99.90
21267;DHT22;10791;53.108;18.326;2022-12-07T16:24:48;2.00;99.90
21267;DHT22;10791;53.108;18.326;2022-12-07T16:29:52;2.00;99.90
21267;DHT22;10791;53.108;18.326;2022-12-07T16:34:55;1.90;99.90
21267;DHT22;10791;53.108;18.326;2022-12-07T16:39:58;1.90;99.90
21267;DHT22;10791;53.108;18.326;2022-12-07T16:45:02;1.90;99.90
21267;DHT22;10791;53.108;18.326;2022-12-07T16:50:07;1.90;99.90
21267;DHT22;10791;53.108;18.326;2022-12-07T16:55:10;1.90;99.90
21267;DHT22;10791;53.108;18.326;2022-12-07T17:00:14;1.80;99.90
21267;DHT22;10791;53.108;18.326;2022-12-07T17:05:21;1.70;99.90
21267;DHT22;10791;53.108;18.326;2022-12-07T17:10:25;1.70;99.90
21267;DHT22;10791;53.108;18.326;2022-12-07T17:15:28;1.60;99.90
21267;DHT22;10791;53.108;18.326;2022-12-07T17:20:32;1.60;99.90
21267;DHT22;10791;53.108;18.326;2022-12-07T17:25:36;1.50;99.90
21267;DHT22;10791;53.108;18.326;2022-12-07T17:30:40;1.50;99.90
21267;DHT22;10791;53.108;18.326;2022-12-07T17:35:44;1.50;99.90
21267;DHT22;10791;53.108;18.326;2022-12-07T17:40:48;1.50;99.90
21267;DHT22;10791;53.108;18.326;2022-12-07T17:45:52;1.60;99.90
21267;DHT22;10791;53.108;18.326;2022-12-07T17:50:59;1.60;99.90
21267;DHT22;10791;53.108;18.326;2022-12-07T17:56:23;1.60;99.90
21267;DHT22;10791;53.108;18.326;2022-12-07T18:01:31;1.60;99.90
21267;DHT22;10791;53.108;18.326;2022-12-07T18:06:41;1.60;99.90
21267;DHT22;10791;53.108;18.326;2022-12-07T18:11:50;1.50;99.90
21267;DHT22;10791;53.108;18.326;2022-12-07T18:16:57;1.50;99.90
21267;DHT22;10791;53.108;18.326;2022-12-07T18:22:02;1.40;99.90
21267;DHT22;10791;53.108;18.326;2022-12-07T18:27:11;1.50;99.90
21267;DHT22;10791;53.108;18.326;2022-12-07T18:32:15;1.40;99.90
21267;DHT22;10791;53.108;18.326;2022-12-07T18:37:21;1.40;99.90
21267;DHT22;10791;53.108;18.326;2022-12-07T18:42:32;1.50;99.90
21267;DHT22;10791;53.108;18.326;2022-12-07T18:47:38;1.40;99.90
21267;DHT22;10791;53.108;18.326;2022-12-07T18:52:43;1.40;99.90
21267;DHT22;10791;53.108;18.326;2022-12-07T18:57:57;1.40;99.90
21267;DHT22;10791;53.108;18.326;2022-12-07T19:03:02;1.40;99.90
21267;DHT22;10791;53.108;18.326;2022-12-07T19:08:09;1.40;99.90
21267;DHT22;10791;53.108;18.326;2022-12-07T19:13:14;1.30;99.90
21267;DHT22;10791;53.108;18.326;2022-12-07T19:18:19;1.30;99.90
21267;DHT22;10791;53.108;18.326;2022-12-07T19:23:24;1.30;99.90
21267;DHT22;10791;53.108;18.326;2022-12-07T19:28:29;1.10;99.90
21267;DHT22;10791;53.108;18.326;2022-12-07T19:33:34;1.10;99.90
21267;DHT22;10791;53.108;18.326;2022-12-07T19:38:39;1.00;99.90
21267;DHT22;10791;53.108;18.326;2022-12-07T19:43:45;1.00;99.90
21267;DHT22;10791;53.108;18.326;2022-12-07T19:48:51;0.90;99.90
21267;DHT22;10791;53.108;18.326;2022-12-07T19:53:58;0.90;99.90
21267;DHT22;10791;53.108;18.326;2022-12-07T19:59:03;0.80;99.90
21267;DHT22;10791;53.108;18.326;2022-12-07T20:04:13;0.70;99.90
21267;DHT22;10791;53.108;18.326;2022-12-07T20:09:22;0.70;99.90
21267;DHT22;10791;53.108;18.326;2022-12-07T20:14:28;0.60;99.90
21267;DHT22;10791;53.108;18.326;2022-12-07T20:19:37;0.60;99.90
21267;DHT22;10791;53.108;18.326;2022-12-07T20:24:43;0.60;99.90
21267;DHT22;10791;53.108;18.326;2022-12-07T20:29:46;0.60;99.90
21267;DHT22;10791;53.108;18.326;2022-12-07T20:34:55;0.60;99.90
21267;DHT22;10791;53.108;18.326;2022-12-07T20:40:00;0.60;99.90
21267;DHT22;10791;53.108;18.326;2022-12-07T20:45:06;0.60;99.90
21267;DHT22;10791;53.108;18.326;2022-12-07T20:50:14;0.60;99.90
21267;DHT22;10791;53.108;18.326;2022-12-07T20:55:19;0.60;99.90
21267;DHT22;10791;53.108;18.326;2022-12-07T21:00:24;0.70;99.90
21267;DHT22;10791;53.108;18.326;2022-12-07T21:05:28;0.90;99.90
21267;DHT22;10791;53.108;18.326;2022-12-07T21:10:32;1.00;99.90
21267;DHT22;10791;53.108;18.326;2022-12-07T21:15:39;1.10;99.90
21267;DHT22;10791;53.108;18.326;2022-12-07T21:20:43;1.10;99.90
21267;DHT22;10791;53.108;18.326;2022-12-07T21:25:46;1.10;99.90
21267;DHT22;10791;53.108;18.326;2022-12-07T21:30:57;1.10;99.90
21267;DHT22;10791;53.108;18.326;2022-12-07T21:36:21;1.20;99.90
21267;DHT22;10791;53.108;18.326;2022-12-07T21:41:27;1.20;99.90
21267;DHT22;10791;53.108;18.326;2022-12-07T21:46:31;1.20;99.90
21267;DHT22;10791;53.108;18.326;2022-12-07T21:51:37;1.30;99.90
21267;DHT22;10791;53.108;18.326;2022-12-07T21:56:42;1.20;99.90
21267;DHT22;10791;53.108;18.326;2022-12-07T22:01:48;1.10;99.90
21267;DHT22;10791;53.108;18.326;2022-12-07T22:06:52;1.00;99.90
21267;DHT22;10791;53.108;18.326;2022-12-07T22:11:55;1.00;99.90
21267;DHT22;10791;53.108;18.326;2022-12-07T22:16:59;1.00;99.90
21267;DHT22;10791;53.108;18.326;2022-12-07T22:22:02;0.90;99.90
21267;DHT22;10791;53.108;18.326;2022-12-07T22:27:06;0.90;99.90
21267;DHT22;10791;53.108;18.326;2022-12-07T22:32:09;0.80;99.90
21267;DHT22;10791;53.108;18.326;2022-12-07T22:37:32;0.80;99.90
21267;DHT22;10791;53.108;18.326;2022-12-07T22:42:36;0.90;99.90
21267;DHT22;10791;53.108;18.326;2022-12-07T22:47:39;0.90;99.90
21267;DHT22;10791;53.108;18.326;2022-12-07T22:52:42;0.80;99.90
21267;DHT22;10791;53.108;18.326;2022-12-07T22:57:46;0.80;99.90
21267;DHT22;10791;53.108;18.326;2022-12-07T23:02:49;0.80;99.90
21267;DHT22;10791;53.108;18.326;2022-12-07T23:07:53;0.80;99.90
21267;DHT22;10791;53.108;18.326;2022-12-07T23:12:56;0.90;99.90
21267;DHT22;10791;53.108;18.326;2022-12-07T23:18:18;0.90;99.90
21267;DHT22;10791;53.108;18.326;2022-12-07T23:23:21;0.80;99.90
21267;DHT22;10791;53.108;18.326;2022-12-07T23:28:24;0.90;99.90
21267;DHT22;10791;53.108;18.326;2022-12-07T23:33:27;0.90;99.90
21267;DHT22;10791;53.108;18.326;2022-12-07T23:38:31;0.90;99.90
21267;DHT22;10791;53.108;18.326;2022-12-07T23:43:35;0.90;99.90
21267;DHT22;10791;53.108;18.326;2022-12-07T23:48:39;0.80;99.90
21267;DHT22;10791;53.108;18.326;2022-12-07T23:53:45;0.80;99.90
21267;DHT22;10791;53.108;18.326;2022-12-07T23:58:49;0.70;99.90
